Ana Sayfa
METAR-TAF:

METAR-TAF

Havaalanları :

Savannakhet, Laos

Enlem: 16-33-24N, Boylam: 104-45-34E, yükseklik: 155 m

Güncel hava durumu gözlemi

Rapor saat 00:00 UTC de 45 dakika önce yapıldı.
Rüzgar doğu/güneydoğudan 2 kt
Sıcaklık 20°C
Nem 83%
Basınç 1014 hPa
Görüş mesafesi: 3000 m
4000 ft yükseklikte parçalı bulutlu
Pus

METAR: VLSK 280000Z 12002KT 3000 BR SCT040 20/17 Q1014 NOSIG

Saat: 07:45 (00:45 UTC)

Tahmin

Rapor saat 23:00 UTC de 1 saat ve 45 dakika önce yapıldı.
Ayın 28'si saat 00 UTC'den ayın 28'si saat 24 UTC'ye kadar geçerli Tahmin
Rüzgar batıdan 4 kt
Görüş mesafesi: 8000 m
2000 ft yükseklikte az bulutlu
10000 ft yükseklikte az bulutlu

TAF: VLSK 272300Z 2800/2824 27004KT 8000 FEW020 FEW100

4.000'den fazla havaalanı için hava durumu gözlemleri ve tahminleri (METAR ve TAF raporları).

Kullanılabilir istasyonlar harita üzerinde sarı ve kırmızı noktalarla gösterilir.

İstasyonun adını görmek için fareyi noktanın üzerinde gezdirin.

Sonrasında hava gözlem ve tahminlerini görmek için tıklayın.

Haritayı değiştirmek için: yaklaştırmak için siyah artı işaretli yeşil düğmeye ve uzaklaştırmak için de eksi işaretli düğmeye hızla tıklayın; bitişik haritalar için yeşil okları kullanın.


METAR-TAF: